Time;durP1;ratioP1;P1;durP2;ratioP2;P2;SDS_P1;SDS_P2;PMS_P1;PMS_P2;Temp;Humidity;BMP_temperature;BMP_pressure;BME280_temperature;BME280_humidity;BME280_pressure;Samples;Min_cycle;Max_cycle;Signal;HPM_P1;HPM_P2
2024/04/06 00:02:34;;;;;;;0.70;0.70;;;16.00;94.30;;;;;;10449079;28;20863;-71
2024/04/06 00:07:37;;;;;;;0.60;0.60;;;15.90;94.40;;;;;;10448853;28;20195;-71
2024/04/06 00:12:40;;;;;;;0.60;0.60;;;15.80;94.40;;;;;;10448569;28;20282;-71
2024/04/06 00:17:43;;;;;;;0.60;0.60;;;15.80;94.50;;;;;;10452899;28;20216;-72
2024/04/06 00:22:45;;;;;;;0.60;0.60;;;15.80;94.80;;;;;;10456262;28;20222;-72
2024/04/06 00:27:49;;;;;;;0.50;0.50;;;15.80;94.60;;;;;;10456222;28;20193;-71
2024/04/06 00:32:51;;;;;;;0.70;0.70;;;15.80;94.70;;;;;;10454838;28;20224;-72
2024/04/06 00:37:53;;;;;;;0.67;0.67;;;15.80;94.90;;;;;;10455646;28;20284;-71
2024/04/06 00:42:57;;;;;;;0.57;0.57;;;15.80;94.80;;;;;;10455669;28;20232;-71
2024/04/06 00:47:59;;;;;;;0.60;0.60;;;15.70;95.00;;;;;;10455388;28;20200;-71
2024/04/06 00:53:02;;;;;;;0.70;0.70;;;15.60;94.90;;;;;;10455910;28;20221;-72
2024/04/06 00:58:06;;;;;;;0.80;0.80;;;15.60;95.20;;;;;;10454371;28;20221;-72
2024/04/06 01:03:09;;;;;;;0.70;0.70;;;15.50;95.20;;;;;;10429276;28;20229;-71
2024/04/06 01:08:11;;;;;;;0.67;0.67;;;15.50;95.00;;;;;;10454140;28;20193;-70
2024/04/06 01:13:15;;;;;;;0.60;0.60;;;15.40;95.40;;;;;;10455256;28;20255;-70
2024/04/06 01:18:17;;;;;;;0.67;0.67;;;15.30;95.30;;;;;;10453982;28;20216;-70
2024/04/06 01:23:20;;;;;;;0.93;0.93;;;15.20;95.20;;;;;;10453808;28;20232;-70
2024/04/06 01:28:23;;;;;;;0.70;0.70;;;15.10;95.30;;;;;;10453354;28;20198;-70
2024/04/06 01:33:26;;;;;;;0.70;0.70;;;15.00;95.40;;;;;;10453758;28;20202;-70
2024/04/06 01:38:28;;;;;;;0.70;0.70;;;14.90;95.60;;;;;;10452183;28;20198;-70
2024/04/06 01:43:32;;;;;;;0.70;0.70;;;14.90;95.60;;;;;;10453407;28;20201;-70
2024/04/06 01:48:34;;;;;;;0.80;0.80;;;14.80;95.70;;;;;;10452749;28;20205;-70
2024/04/06 01:53:36;;;;;;;1.00;1.00;;;14.80;95.70;;;;;;10452904;28;20200;-70
2024/04/06 01:58:40;;;;;;;0.90;0.90;;;14.60;95.90;;;;;;10434528;28;20263;-70
2024/04/06 02:03:43;;;;;;;1.20;1.20;;;14.60;96.00;;;;;;10447285;28;20283;-70
2024/04/06 02:08:45;;;;;;;1.00;1.00;;;14.50;95.90;;;;;;10451804;28;20286;-70
2024/04/06 02:13:49;;;;;;;1.00;1.00;;;14.50;96.10;;;;;;10451940;28;20316;-70
2024/04/06 02:18:51;;;;;;;0.90;0.90;;;14.40;96.20;;;;;;10451588;28;20637;-70
2024/04/06 02:23:53;;;;;;;1.00;1.00;;;14.30;96.30;;;;;;10451692;28;20273;-70
2024/04/06 02:28:57;;;;;;;1.10;1.10;;;14.20;96.50;;;;;;10451119;28;20271;-70
2024/04/06 02:34:00;;;;;;;1.17;1.17;;;14.10;96.70;;;;;;10451255;28;20633;-70
2024/04/06 02:39:03;;;;;;;1.27;1.27;;;14.10;96.70;;;;;;10450336;28;20314;-70
2024/04/06 02:44:06;;;;;;;1.00;1.00;;;14.00;96.80;;;;;;10450900;28;20201;-70
2024/04/06 02:49:09;;;;;;;1.10;1.10;;;14.00;96.90;;;;;;10450363;28;20297;-71
2024/04/06 02:54:11;;;;;;;1.00;1.00;;;14.00;96.90;;;;;;10450698;28;20205;-70
2024/04/06 02:59:15;;;;;;;1.37;1.37;;;14.00;97.00;;;;;;10448585;28;20213;-70
2024/04/06 03:04:17;;;;;;;1.20;1.20;;;14.00;97.00;;;;;;10445157;28;20270;-71
2024/04/06 03:09:20;;;;;;;1.20;1.20;;;14.00;97.10;;;;;;10449372;28;20228;-70
2024/04/06 03:14:23;;;;;;;1.10;1.10;;;14.00;97.20;;;;;;10449554;28;20213;-70
2024/04/06 03:19:26;;;;;;;1.07;1.07;;;14.10;97.20;;;;;;10449606;28;20631;-70
2024/04/06 03:24:28;;;;;;;1.00;1.00;;;14.00;97.10;;;;;;10449792;28;20201;-71
2024/04/06 03:29:32;;;;;;;1.20;1.20;;;14.00;97.30;;;;;;10449330;28;20228;-69
2024/04/06 03:34:34;;;;;;;1.30;1.30;;;14.00;97.10;;;;;;10449400;28;20225;-71
2024/04/06 03:39:36;;;;;;;1.10;1.10;;;14.00;97.00;;;;;;10449037;28;20213;-71
2024/04/06 03:44:40;;;;;;;0.90;0.90;;;14.00;97.20;;;;;;10449140;28;20197;-71
2024/04/06 03:49:42;;;;;;;1.17;1.17;;;13.90;97.40;;;;;;10449039;28;20216;-71
2024/04/06 03:54:45;;;;;;;1.10;1.10;;;13.80;97.50;;;;;;10456824;28;20581;-72
2024/04/06 03:59:48;;;;;;;1.20;1.20;;;13.80;97.50;;;;;;10456982;28;20213;-71
2024/04/06 04:04:51;;;;;;;1.40;1.40;;;13.70;97.50;;;;;;10457028;28;20196;-71
2024/04/06 04:09:53;;;;;;;1.10;1.10;;;13.70;97.80;;;;;;10456218;28;20225;-71
2024/04/06 04:14:57;;;;;;;1.10;1.10;;;13.60;97.60;;;;;;10450635;28;20262;-71
2024/04/06 04:19:59;;;;;;;1.10;1.10;;;13.50;97.60;;;;;;10456441;28;20221;-71
2024/04/06 04:25:02;;;;;;;1.20;1.20;;;13.50;97.60;;;;;;10438599;28;20198;-71
2024/04/06 04:30:07;;;;;;;1.00;1.00;;;13.50;97.60;;;;;;10455993;28;20220;-71
2024/04/06 04:35:10;;;;;;;1.60;1.60;;;13.40;97.70;;;;;;10455908;28;20212;-71
2024/04/06 04:40:12;;;;;;;1.23;1.23;;;13.40;97.70;;;;;;10455630;28;20219;-71
2024/04/06 04:45:16;;;;;;;1.17;1.17;;;13.30;97.90;;;;;;10455620;28;20189;-71
2024/04/06 04:50:19;;;;;;;1.10;1.10;;;13.30;97.90;;;;;;10455097;28;20228;-71
2024/04/06 04:55:21;;;;;;;1.23;1.23;;;13.20;97.90;;;;;;10453995;28;20213;-71
2024/04/06 05:00:25;;;;;;;1.10;1.10;;;13.20;98.00;;;;;;10453638;28;20267;-72
2024/04/06 05:05:27;;;;;;;1.40;1.40;;;13.10;98.00;;;;;;10436770;28;20204;-71
2024/04/06 05:10:30;;;;;;;1.60;1.60;;;13.10;98.10;;;;;;10452390;28;20280;-71
2024/04/06 05:15:33;;;;;;;1.10;1.10;;;13.10;98.10;;;;;;10471922;28;20255;-71
2024/04/06 05:20:36;;;;;;;1.00;1.00;;;13.00;98.10;;;;;;10468165;28;20239;-71
2024/04/06 05:25:38;;;;;;;1.07;1.07;;;13.00;98.30;;;;;;10471920;28;20181;-71
2024/04/06 05:30:44;;;;;;;1.10;1.10;;;13.10;98.40;;;;;;10466170;28;20579;-71
2024/04/06 05:35:48;;;;;;;1.00;1.00;;;13.10;98.30;;;;;;10450953;28;20698;-71
2024/04/06 05:40:53;;;;;;;1.30;1.30;;;13.10;98.60;;;;;;10452090;28;20714;-71
2024/04/06 05:46:01;;;;;;;1.47;1.47;;;13.10;98.60;;;;;;10412003;28;20721;-71
2024/04/06 05:51:04;;;;;;;0.93;0.93;;;13.20;98.60;;;;;;10432621;28;20278;-71
2024/04/06 05:56:08;;;;;;;1.10;1.10;;;13.20;98.90;;;;;;10455130;28;20984;-71
2024/04/06 06:01:12;;;;;;;1.40;1.40;;;13.30;98.90;;;;;;10452441;28;20275;-71
2024/04/06 06:06:14;;;;;;;0.83;0.83;;;13.30;98.80;;;;;;10410788;28;20197;-71
2024/04/06 06:11:17;;;;;;;0.83;0.83;;;13.40;99.00;;;;;;10467435;28;20236;-71
2024/04/06 06:16:20;;;;;;;1.00;1.00;;;13.50;99.10;;;;;;10450731;28;20267;-70
2024/04/06 06:21:23;;;;;;;1.10;1.10;;;13.60;99.10;;;;;;10451644;28;20624;-71
2024/04/06 06:26:25;;;;;;;1.10;1.10;;;13.70;99.20;;;;;;10444724;28;20194;-70
2024/04/06 06:31:29;;;;;;;1.20;1.20;;;13.70;99.20;;;;;;10446300;28;20225;-70
2024/04/06 06:36:31;;;;;;;1.07;1.07;;;13.90;99.40;;;;;;10445383;28;20240;-70
2024/04/06 06:41:33;;;;;;;0.70;0.70;;;13.90;99.60;;;;;;10454492;28;20221;-80
2024/04/06 06:46:37;;;;;;;0.77;0.77;;;14.10;99.70;;;;;;10456033;28;20205;-79
2024/04/06 06:51:39;;;;;;;0.80;0.80;;;14.40;99.70;;;;;;10454131;28;20639;-80
2024/04/06 06:56:42;;;;;;;0.60;0.60;;;14.60;99.70;;;;;;10455860;28;20217;-80
2024/04/06 07:01:45;;;;;;;0.80;0.80;;;14.70;99.70;;;;;;10456674;28;20217;-79
2024/04/06 07:06:48;;;;;;;0.50;0.50;;;14.80;99.70;;;;;;10455683;28;20197;-79
2024/04/06 07:11:50;;;;;;;0.60;0.60;;;14.90;99.90;;;;;;10439121;28;20717;-80
2024/04/06 07:16:54;;;;;;;0.60;0.60;;;15.10;99.90;;;;;;10455498;28;20248;-79
2024/04/06 07:21:56;;;;;;;0.67;0.67;;;15.10;99.80;;;;;;10455563;28;20209;-79
2024/04/06 07:26:59;;;;;;;0.70;0.70;;;15.30;99.90;;;;;;10437984;28;20480;-80
2024/04/06 07:32:02;;;;;;;0.40;0.40;;;15.40;99.90;;;;;;10456990;28;20251;-78
2024/04/06 07:37:05;;;;;;;0.40;0.40;;;15.50;99.90;;;;;;10433258;28;20233;-79
2024/04/06 07:42:07;;;;;;;0.50;0.50;;;15.60;99.90;;;;;;10456000;28;20627;-78
2024/04/06 07:47:11;;;;;;;7.73;7.53;;;15.70;99.90;;;;;;10449915;28;20197;-69
2024/04/06 07:52:13;;;;;;;1.10;1.10;;;15.90;99.90;;;;;;10446447;28;20217;-69
2024/04/06 07:57:16;;;;;;;1.03;1.03;;;16.20;99.90;;;;;;10445852;28;20221;-69
2024/04/06 08:02:19;;;;;;;1.30;1.30;;;16.40;99.70;;;;;;10448236;28;20217;-69
2024/04/06 08:07:22;;;;;;;1.40;1.40;;;16.50;99.50;;;;;;10447021;28;20189;-69
2024/04/06 08:12:24;;;;;;;2.37;2.37;;;16.70;99.30;;;;;;10447412;28;20267;-69
2024/04/06 08:17:28;;;;;;;1.60;1.60;;;16.80;99.20;;;;;;10447548;28;20213;-70
2024/04/06 08:22:30;;;;;;;1.13;1.13;;;16.80;97.80;;;;;;10448171;28;20271;-70
2024/04/06 08:27:33;;;;;;;1.23;1.23;;;17.00;97.30;;;;;;10447960;28;20671;-70
2024/04/06 08:32:39;;;;;;;1.23;1.23;;;17.30;97.10;;;;;;10447922;28;20259;-69
2024/04/06 08:37:42;;;;;;;1.60;1.60;;;17.60;96.30;;;;;;10445332;28;20225;-69
2024/04/06 08:42:45;;;;;;;1.27;1.27;;;17.90;96.50;;;;;;10455334;28;20217;-70
2024/04/06 08:47:50;;;;;;;1.37;1.37;;;18.10;95.90;;;;;;10455106;28;20193;-70
2024/04/06 08:52:52;;;;;;;1.00;1.00;;;18.40;95.10;;;;;;10454822;28;20323;-69
2024/04/06 08:57:55;;;;;;;1.63;1.63;;;18.50;95.00;;;;;;10454529;28;20761;-70
2024/04/06 09:02:58;;;;;;;1.20;1.20;;;18.60;93.60;;;;;;10454400;28;20221;-70
2024/04/06 09:08:01;;;;;;;1.10;1.10;;;18.60;92.00;;;;;;10453961;28;20235;-69
2024/04/06 09:13:03;;;;;;;1.90;1.90;;;18.80;92.40;;;;;;10453531;28;20291;-70
2024/04/06 09:18:07;;;;;;;1.27;1.27;;;19.10;91.20;;;;;;10453962;28;20255;-69
2024/04/06 09:23:09;;;;;;;1.10;1.10;;;19.40;88.20;;;;;;10453851;28;20217;-69
2024/04/06 09:28:13;;;;;;;0.80;0.80;;;19.90;87.90;;;;;;10453562;28;20189;-70
2024/04/06 09:33:21;;;;;;;1.30;1.30;;;20.20;89.20;;;;;;10453749;28;20213;-69
2024/04/06 09:38:24;;;;;;;1.70;1.70;;;20.30;88.00;;;;;;10446925;28;20217;-70
2024/04/06 09:43:27;;;;;;;1.80;1.80;;;20.30;88.80;;;;;;10452792;28;20555;-68
2024/04/06 09:48:32;;;;;;;1.47;1.47;;;20.40;88.50;;;;;;10452581;28;20732;-68
2024/04/06 09:53:35;;;;;;;1.60;1.60;;;20.50;90.30;;;;;;10452683;28;20815;-68
2024/04/06 09:58:47;;;;;;;0.90;0.90;;;20.40;90.60;;;;;;10451783;28;20221;-69
2024/04/06 10:03:51;;;;;;;3.23;3.13;;;20.50;88.80;;;;;;10452378;28;20197;-68
2024/04/06 10:08:58;;;;;;;3.07;2.97;;;20.70;90.80;;;;;;10448408;28;20655;-68
2024/04/06 10:14:02;;;;;;;2.00;2.00;;;20.70;81.40;;;;;;10448247;28;20197;-70
2024/04/06 10:19:07;;;;;;;2.33;2.30;;;21.00;76.40;;;;;;10446833;28;20969;-70
2024/04/06 10:24:12;;;;;;;2.10;2.10;;;21.10;74.40;;;;;;10447353;28;20197;-70
2024/04/06 10:29:15;;;;;;;1.20;1.20;;;21.20;74.10;;;;;;10448817;28;20291;-68
2024/04/06 10:34:18;;;;;;;1.90;1.90;;;21.40;68.10;;;;;;10453909;28;20608;-68
2024/04/06 10:39:21;;;;;;;2.20;2.20;;;21.40;73.00;;;;;;10450667;28;20217;-68
2024/04/06 10:44:23;;;;;;;2.67;2.67;;;21.20;69.10;;;;;;10445348;28;20777;-68
2024/04/06 10:49:27;;;;;;;1.90;1.90;;;21.20;68.00;;;;;;10452061;28;20209;-67
2024/04/06 10:54:30;;;;;;;1.53;1.53;;;21.10;71.00;;;;;;10450337;28;20638;-67
2024/04/06 10:59:33;;;;;;;1.10;1.10;;;21.10;65.30;;;;;;10449860;28;20229;-67
2024/04/06 11:04:41;;;;;;;1.07;1.07;;;21.50;69.70;;;;;;10431860;28;20209;-67
2024/04/06 11:09:43;;;;;;;1.60;1.60;;;21.30;67.80;;;;;;10444604;28;20224;-67
2024/04/06 11:14:50;;;;;;;1.90;1.90;;;21.70;63.50;;;;;;10444027;28;20235;-67
2024/04/06 11:19:57;;;;;;;3.10;3.00;;;21.90;66.60;;;;;;10443783;28;20228;-67
2024/04/06 11:25:00;;;;;;;1.80;1.80;;;21.70;64.00;;;;;;10447468;28;20223;-68
2024/04/06 11:30:03;;;;;;;2.73;2.63;;;21.70;62.90;;;;;;10452552;28;20691;-78
2024/04/06 11:35:08;;;;;;;1.30;1.30;;;21.80;63.60;;;;;;10449768;28;20207;-77
2024/04/06 11:40:11;;;;;;;1.70;1.70;;;21.80;66.10;;;;;;10448027;28;20259;-78
2024/04/06 11:45:13;;;;;;;1.37;1.37;;;21.80;63.60;;;;;;10444497;28;20220;-78
2024/04/06 11:50:17;;;;;;;1.50;1.50;;;22.00;60.90;;;;;;10451080;28;20217;-78
2024/04/06 11:55:20;;;;;;;1.33;1.33;;;22.30;59.00;;;;;;10450182;28;20263;-77
2024/04/06 12:00:22;;;;;;;1.23;1.23;;;22.40;59.20;;;;;;10449311;28;20236;-78
2024/04/06 12:05:26;;;;;;;2.40;2.30;;;22.70;58.40;;;;;;10417309;28;20190;-77
2024/04/06 12:10:28;;;;;;;2.00;2.00;;;22.70;59.10;;;;;;10451418;28;20221;-76
2024/04/06 12:15:31;;;;;;;1.77;1.77;;;22.70;61.00;;;;;;10458385;28;20445;-78
2024/04/06 12:20:35;;;;;;;1.70;1.70;;;22.70;58.40;;;;;;10453562;28;20254;-79
2024/04/06 12:25:37;;;;;;;1.30;1.30;;;22.80;60.30;;;;;;10453170;28;20286;-76
2024/04/06 12:30:39;;;;;;;1.50;1.50;;;22.60;61.90;;;;;;10449282;28;20221;-78
2024/04/06 12:35:48;;;;;;;1.73;1.73;;;22.40;64.50;;;;;;10452625;28;20243;-76
2024/04/06 12:40:50;;;;;;;1.37;1.37;;;22.20;64.20;;;;;;10457228;28;20229;-79
2024/04/06 12:45:53;;;;;;;1.60;1.60;;;22.20;60.00;;;;;;10464102;28;20205;-77
2024/04/06 12:50:56;;;;;;;1.00;1.00;;;22.20;59.80;;;;;;10455160;28;20571;-78
2024/04/06 12:55:59;;;;;;;1.43;1.43;;;22.30;60.80;;;;;;10461208;28;20208;-79
2024/04/06 13:01:02;;;;;;;0.90;0.90;;;22.20;65.10;;;;;;10460629;28;20242;-78
2024/04/06 13:06:07;;;;;;;1.00;1.00;;;21.90;66.50;;;;;;10459805;28;20250;-78
2024/04/06 13:11:09;;;;;;;1.20;1.20;;;21.70;65.40;;;;;;10459150;28;20643;-77
2024/04/06 13:16:12;;;;;;;1.23;1.23;;;21.60;61.30;;;;;;10457741;28;20197;-81
2024/04/06 13:21:16;;;;;;;1.10;1.10;;;22.00;60.60;;;;;;10456801;28;20217;-80
2024/04/06 13:26:18;;;;;;;0.60;0.60;;;22.20;59.80;;;;;;10458079;28;20197;-79
2024/04/06 13:31:21;;;;;;;0.50;0.50;;;22.20;64.30;;;;;;10455666;28;20282;-81
2024/04/06 13:36:26;;;;;;;0.40;0.40;;;22.10;67.60;;;;;;10453090;28;20213;-81
2024/04/06 13:41:28;;;;;;;0.50;0.50;;;22.00;58.70;;;;;;10455741;28;20220;-83
2024/04/06 13:46:30;;;;;;;0.47;0.47;;;22.00;62.70;;;;;;10460984;28;20785;-80
2024/04/06 13:51:35;;;;;;;0.50;0.50;;;22.10;61.20;;;;;;10461744;28;20572;-81
2024/04/06 13:56:39;;;;;;;0.60;0.60;;;22.30;59.80;;;;;;10467386;28;20215;-80
2024/04/06 14:01:41;;;;;;;0.50;0.50;;;22.40;57.60;;;;;;10462842;28;20251;-80
2024/04/06 14:06:46;;;;;;;0.50;0.50;;;22.50;58.00;;;;;;10462375;28;20197;-80
2024/04/06 14:11:48;;;;;;;0.60;0.60;;;22.50;63.00;;;;;;10457618;28;20527;-78
2024/04/06 14:16:52;;;;;;;0.60;0.60;;;22.70;57.40;;;;;;10455137;28;20221;-79
2024/04/06 14:21:56;;;;;;;0.60;0.60;;;23.00;57.10;;;;;;10453776;28;20229;-80
2024/04/06 14:26:59;;;;;;;0.80;0.80;;;23.30;56.70;;;;;;10456470;28;20213;-79
2024/04/06 14:32:01;;;;;;;1.10;1.10;;;23.30;59.00;;;;;;10458821;28;20690;-80
2024/04/06 14:37:05;;;;;;;0.90;0.90;;;23.30;55.30;;;;;;10456083;28;20216;-79
2024/04/06 14:42:08;;;;;;;1.20;1.20;;;23.30;58.20;;;;;;10457540;28;20270;-80
2024/04/06 14:47:10;;;;;;;1.33;1.33;;;23.00;59.70;;;;;;10451889;28;20255;-79
2024/04/06 14:52:14;;;;;;;1.43;1.43;;;23.00;58.80;;;;;;10449942;28;20713;-78
2024/04/06 14:57:16;;;;;;;1.60;1.60;;;22.70;59.30;;;;;;10455576;28;20205;-79
2024/04/06 15:02:19;;;;;;;1.10;1.10;;;22.80;55.40;;;;;;10456225;28;20228;-80
2024/04/06 15:07:22;;;;;;;1.23;1.23;;;22.90;57.30;;;;;;10450988;28;20560;-81
2024/04/06 15:12:25;;;;;;;1.53;1.53;;;23.00;56.60;;;;;;10449468;28;20330;-77
2024/04/06 15:17:29;;;;;;;1.27;1.27;;;23.20;54.70;;;;;;10451355;28;20209;-80
2024/04/06 15:22:33;;;;;;;1.47;1.47;;;23.40;54.40;;;;;;10434445;28;20229;-82
2024/04/06 15:27:35;;;;;;;1.73;1.73;;;23.30;56.10;;;;;;10453376;28;20682;-84
2024/04/06 15:32:39;;;;;;;1.40;1.40;;;23.20;55.60;;;;;;10435373;28;20229;-81
2024/04/06 15:37:42;;;;;;;1.60;1.60;;;23.10;54.60;;;;;;10435320;28;20228;-78
2024/04/06 15:42:46;;;;;;;1.40;1.40;;;23.10;56.10;;;;;;10449797;28;20229;-81
2024/04/06 15:47:49;;;;;;;1.60;1.60;;;22.80;57.70;;;;;;10453486;28;20203;-79
2024/04/06 15:52:54;;;;;;;1.30;1.30;;;22.90;54.30;;;;;;10459010;28;20278;-80
2024/04/06 15:57:56;;;;;;;1.30;1.30;;;23.10;52.40;;;;;;10442706;28;20254;-80
2024/04/06 16:02:59;;;;;;;1.33;1.33;;;23.30;53.20;;;;;;10460564;28;20228;-83
2024/04/06 16:08:03;;;;;;;1.30;1.30;;;23.30;54.30;;;;;;10459879;28;20203;-80
2024/04/06 16:13:05;;;;;;;0.83;0.83;;;23.30;55.10;;;;;;10455532;28;20229;-81
2024/04/06 16:18:07;;;;;;;1.33;1.33;;;23.00;59.40;;;;;;10449874;28;20306;-81
2024/04/06 16:23:11;;;;;;;1.50;1.50;;;22.70;59.60;;;;;;10455671;28;20229;-79
2024/04/06 16:28:14;;;;;;;1.57;1.57;;;22.50;54.70;;;;;;10434550;28;20304;-80
2024/04/06 16:33:16;;;;;;;1.73;1.73;;;22.50;57.70;;;;;;10454183;28;20228;-81
2024/04/06 16:38:20;;;;;;;1.53;1.53;;;22.30;58.70;;;;;;10450446;28;20225;-80
2024/04/06 16:43:22;;;;;;;1.03;1.03;;;22.10;61.20;;;;;;10452318;28;20219;-82
2024/04/06 16:48:25;;;;;;;1.60;1.60;;;22.00;61.00;;;;;;10453245;28;20205;-78
2024/04/06 16:53:28;;;;;;;1.60;1.60;;;22.20;63.90;;;;;;10452915;28;20205;-80
2024/04/06 16:58:31;;;;;;;1.30;1.30;;;22.20;64.40;;;;;;10450871;28;20724;-79
2024/04/06 17:03:33;;;;;;;1.90;1.90;;;22.30;66.50;;;;;;10451779;28;20205;-80
2024/04/06 17:08:37;;;;;;;1.67;1.67;;;22.30;67.80;;;;;;10454148;28;20197;-77
2024/04/06 17:13:39;;;;;;;1.50;1.50;;;22.30;68.50;;;;;;10454127;28;20752;-78
2024/04/06 17:18:42;;;;;;;1.53;1.53;;;22.30;69.40;;;;;;10450929;28;20217;-79
2024/04/06 17:23:45;;;;;;;1.80;1.80;;;22.20;69.30;;;;;;10453279;28;20221;-77
2024/04/06 17:28:48;;;;;;;1.33;1.33;;;22.10;68.30;;;;;;10461136;28;20221;-77
2024/04/06 17:33:51;;;;;;;1.90;1.90;;;22.10;69.00;;;;;;10451300;28;20732;-78
2024/04/06 17:38:55;;;;;;;1.70;1.70;;;21.90;68.90;;;;;;10450939;28;20233;-78
2024/04/06 17:43:57;;;;;;;1.53;1.53;;;21.80;69.70;;;;;;10452020;28;20201;-78
2024/04/06 17:49:00;;;;;;;1.63;1.63;;;21.70;69.70;;;;;;10457108;28;20571;-77
2024/04/06 17:54:03;;;;;;;1.40;1.40;;;21.60;69.80;;;;;;10453765;28;20193;-78
2024/04/06 17:59:06;;;;;;;0.90;0.90;;;21.50;69.80;;;;;;10452488;28;20221;-78
2024/04/06 18:04:08;;;;;;;1.50;1.50;;;21.30;69.70;;;;;;10452108;28;20197;-78
2024/04/06 18:09:14;;;;;;;1.43;1.43;;;21.20;70.00;;;;;;10458307;28;20657;-79
2024/04/06 18:14:17;;;;;;;1.60;1.60;;;21.00;70.20;;;;;;10440210;28;20212;-80
2024/04/06 18:19:19;;;;;;;0.80;0.80;;;20.80;70.40;;;;;;10460595;28;20233;-78
2024/04/06 18:24:23;;;;;;;1.30;1.30;;;20.70;70.70;;;;;;10455687;28;20205;-82
2024/04/06 18:29:27;;;;;;;1.27;1.27;;;20.60;70.50;;;;;;10449400;28;20218;-79
2024/04/06 18:34:29;;;;;;;1.43;1.43;;;20.50;70.10;;;;;;10452475;28;20197;-80
2024/04/06 18:39:33;;;;;;;1.83;1.83;;;20.40;70.10;;;;;;10448590;28;20225;-82
2024/04/06 18:44:35;;;;;;;0.70;0.70;;;20.30;70.20;;;;;;10443251;28;20922;-78
2024/04/06 18:49:38;;;;;;;1.53;1.53;;;20.20;70.60;;;;;;10447060;28;20221;-79
2024/04/06 18:54:42;;;;;;;1.10;1.10;;;20.00;70.80;;;;;;10451185;28;20204;-80
2024/04/06 18:59:45;;;;;;;1.10;1.10;;;19.90;71.50;;;;;;10454368;28;20718;-83
2024/04/06 19:04:47;;;;;;;0.77;0.77;;;19.80;72.30;;;;;;10453881;28;20189;-79
2024/04/06 19:14:59;;;;;;;0.70;0.70;;;19.60;74.50;;;;;;10488658;28;20205;-79
2024/04/06 19:20:02;;;;;;;1.17;1.17;;;19.50;75.00;;;;;;10490324;28;20217;-78
2024/04/06 19:25:07;;;;;;;1.07;1.07;;;19.40;75.30;;;;;;10489800;28;20584;-77
2024/04/06 19:30:12;;;;;;;1.23;1.23;;;19.30;75.90;;;;;;10489749;28;20215;-77
2024/04/06 19:35:14;;;;;;;1.10;1.10;;;19.30;76.70;;;;;;10486771;28;20197;-78
2024/04/06 19:40:17;;;;;;;1.07;1.07;;;19.20;76.90;;;;;;10481937;28;20225;-77
2024/04/06 19:45:20;;;;;;;1.10;1.10;;;19.10;77.60;;;;;;10488181;28;20201;-78
2024/04/06 19:50:23;;;;;;;0.90;0.90;;;19.00;78.10;;;;;;10468470;28;20283;-77
2024/04/06 19:55:25;;;;;;;0.67;0.67;;;18.90;79.00;;;;;;10484505;28;20190;-79
2024/04/06 20:00:29;;;;;;;0.90;0.90;;;18.90;78.80;;;;;;10495226;28;20236;-79
2024/04/06 20:05:31;;;;;;;0.83;0.83;;;18.80;79.30;;;;;;10492792;28;20204;-78
2024/04/06 20:10:34;;;;;;;1.17;1.17;;;18.70;79.40;;;;;;10488862;28;20224;-78
2024/04/06 20:15:38;;;;;;;0.67;0.67;;;18.60;79.50;;;;;;10479906;28;20225;-78
2024/04/06 20:20:40;;;;;;;0.80;0.80;;;18.50;80.30;;;;;;10462487;28;20251;-78
2024/04/06 20:31:05;;;;;;;1.13;1.13;;;18.40;81.10;;;;;;10485258;28;20215;-78
2024/04/06 20:36:07;;;;;;;0.80;0.80;;;18.30;81.30;;;;;;10485532;28;20189;-79
2024/04/06 20:41:10;;;;;;;1.00;1.00;;;18.20;81.70;;;;;;10494212;28;20228;-80
2024/04/06 20:46:13;;;;;;;0.70;0.70;;;18.20;82.10;;;;;;10492729;28;20689;-79
2024/04/06 20:51:16;;;;;;;1.00;1.00;;;18.10;82.20;;;;;;10484898;28;20229;-79
2024/04/06 20:56:18;;;;;;;1.00;1.00;;;18.10;82.60;;;;;;10491032;28;20745;-79
2024/04/06 21:01:22;;;;;;;0.80;0.80;;;18.00;82.30;;;;;;10497799;28;20220;-78
2024/04/06 21:06:24;;;;;;;0.67;0.67;;;17.90;82.00;;;;;;10498276;28;20208;-79
2024/04/06 21:11:28;;;;;;;0.90;0.90;;;17.90;82.60;;;;;;10496599;28;20733;-79
2024/04/06 21:16:32;;;;;;;1.10;1.10;;;17.80;82.90;;;;;;10499930;28;20253;-78
2024/04/06 21:21:34;;;;;;;0.90;0.90;;;17.70;82.70;;;;;;10493964;28;20220;-79
2024/04/06 21:26:38;;;;;;;1.07;1.07;;;17.70;82.90;;;;;;10495387;28;20212;-79
2024/04/06 21:31:42;;;;;;;0.70;0.70;;;17.60;82.60;;;;;;10494272;28;20290;-78
2024/04/06 21:36:44;;;;;;;0.80;0.80;;;17.60;82.60;;;;;;10490967;28;20720;-79
2024/04/06 21:41:48;;;;;;;0.83;0.83;;;17.50;82.40;;;;;;10495686;28;20300;-78
2024/04/06 21:46:52;;;;;;;0.90;0.90;;;17.50;82.50;;;;;;10494965;28;20200;-79
2024/04/06 21:51:54;;;;;;;0.70;0.70;;;17.50;82.30;;;;;;10483371;28;20213;-79
2024/04/06 21:56:56;;;;;;;0.80;0.80;;;17.50;82.60;;;;;;10479877;28;20196;-78
2024/04/06 22:02:00;;;;;;;0.80;0.80;;;17.40;82.40;;;;;;10496774;28;20223;-78
2024/04/06 22:07:03;;;;;;;0.77;0.77;;;17.40;82.40;;;;;;10491727;28;20196;-78
2024/04/06 22:12:06;;;;;;;0.83;0.83;;;17.40;82.80;;;;;;10496343;28;20216;-79
2024/04/06 22:17:10;;;;;;;0.80;0.80;;;17.30;82.00;;;;;;10474357;28;20222;-78
2024/04/06 22:22:12;;;;;;;0.80;0.80;;;17.30;81.90;;;;;;10488631;28;20224;-78
2024/04/06 22:27:15;;;;;;;0.90;0.90;;;17.30;81.60;;;;;;10458354;28;20254;-78
2024/04/06 22:32:19;;;;;;;0.70;0.70;;;17.30;81.70;;;;;;10494048;28;20225;-78
2024/04/06 22:37:21;;;;;;;0.90;0.90;;;17.20;82.30;;;;;;10491415;28;20211;-78
2024/04/06 22:42:24;;;;;;;0.60;0.60;;;17.20;81.00;;;;;;10489707;28;20729;-79
2024/04/06 22:47:28;;;;;;;0.60;0.60;;;17.30;80.70;;;;;;10492150;28;20205;-78
2024/04/06 22:52:30;;;;;;;0.90;0.90;;;17.30;80.80;;;;;;10468292;28;20213;-78
2024/04/06 22:57:33;;;;;;;0.93;0.93;;;17.30;79.70;;;;;;10489202;28;20250;-78
2024/04/06 23:02:37;;;;;;;0.80;0.80;;;17.30;79.30;;;;;;10490877;28;20231;-78
2024/04/06 23:07:39;;;;;;;0.80;0.80;;;17.30;79.00;;;;;;10492024;28;20196;-79
2024/04/06 23:12:41;;;;;;;0.60;0.60;;;17.20;79.00;;;;;;10490825;28;20228;-79
2024/04/06 23:17:45;;;;;;;0.70;0.70;;;17.30;79.00;;;;;;10494150;28;20196;-78
2024/04/06 23:22:47;;;;;;;0.70;0.70;;;17.30;79.10;;;;;;10497023;28;20653;-78
2024/04/06 23:27:50;;;;;;;0.83;0.83;;;17.20;79.40;;;;;;10487237;28;20216;-78
2024/04/06 23:32:53;;;;;;;0.70;0.70;;;17.20;79.00;;;;;;10473736;28;20220;-78
2024/04/06 23:37:55;;;;;;;0.83;0.83;;;17.10;78.40;;;;;;10495261;28;20235;-78
2024/04/06 23:42:58;;;;;;;0.73;0.73;;;17.10;78.20;;;;;;10495377;28;20246;-78
2024/04/06 23:48:02;;;;;;;0.80;0.80;;;17.10;78.40;;;;;;10477955;28;20219;-78
2024/04/06 23:53:05;;;;;;;0.80;0.80;;;17.00;78.30;;;;;;10492992;28;20848;-78
2024/04/06 23:58:07;;;;;;;0.80;0.80;;;17.00;78.50;;;;;;10499259;28;20326;-77
